Bergina — C6WI8 — position and weather

sailwx.info

Track history (hours):
 
Tides and Currents Weather Stations Pressure Air Temp Water Temp Dewpoint Dewpoint Depression Visibility Wind Speed Wind Dir Waves Ship Positions

Bergina

Last reported at 2018-Jun-18 02:41 UTC. Time now 2018-Jun-18 07:56 UTC.
Position N 29°12' W 094°37'.

Length 240 m; draft 12.6 m.

Type: Tanker. MMSI: 308391000.

Date/timePositionNaut miles runAvg speedWind from/ knotsBaromVisibWave heightAir tempDewpointWater temp
2018-Jun-18 02:41N 29°12' W 094°37'1 4.2
2018-Jun-18 02:29N 29°13' W 094°37'4 7.5
2018-Jun-18 02:00N 29°16' W 094°36'5 9.4
2018-Jun-18 01:30N 29°19' W 094°40'4 6.9
2018-Jun-18 00:55N 29°21' W 094°44'0 0.1
2018-Jun-18 00:19N 29°21' W 094°44'0 0.0
2018-Jun-17 23:52N 29°21' W 094°44'0 0.1
2018-Jun-17 23:19N 29°21' W 094°44'0 0.0
2018-Jun-17 22:55N 29°21' W 094°44'0 0.1
2018-Jun-17 22:28N 29°21' W 094°44'0 0.0
2018-Jun-17 21:40N 29°21' W 094°44'0 0.0
2018-Jun-17 21:07N 29°21' W 094°44'0 0.0
2018-Jun-17 20:40N 29°21' W 094°44'0 0.0
2018-Jun-17 20:16N 29°21' W 094°44'0 0.0
2018-Jun-17 19:16N 29°21' W 094°44'0 0.0
2018-Jun-17 18:52N 29°21' W 094°44'0 0.0
2018-Jun-17 17:25N 29°21' W 094°44'0 0.0
2018-Jun-17 16:58N 29°21' W 094°44'0 0.0
2018-Jun-17 16:25N 29°21' W 094°44'0 0.0
2018-Jun-17 15:58N 29°21' W 094°44'0 0.0
2018-Jun-17 15:28N 29°21' W 094°44'0 0.0
2018-Jun-17 14:52N 29°21' W 094°44'0 0.0
2018-Jun-17 14:28N 29°21' W 094°44'0 0.0
2018-Jun-17 03:22N 29°21' W 094°44'0 0.0
2018-Jun-17 02:58N 29°21' W 094°44'0 0.1
2018-Jun-17 02:28N 29°21' W 094°44'0 0.2
2018-Jun-17 01:58N 29°21' W 094°44'0 0.1
2018-Jun-17 01:22N 29°21' W 094°44'0 0.1
2018-Jun-17 00:55N 29°21' W 094°44'0 0.0
2018-Jun-17 00:25N 29°21' W 094°44'0 0.0
2018-Jun-16 23:37N 29°21' W 094°44'0 0.1
2018-Jun-16 23:25N 29°21' W 094°44'0 0.0
2018-Jun-16 22:40N 29°21' W 094°44'0 0.0
2018-Jun-16 22:28N 29°21' W 094°44'0 0.0
2018-Jun-16 21:37N 29°21' W 094°44'0 0.0
2018-Jun-16 21:22N 29°21' W 094°44'0 0.0
2018-Jun-16 20:52N 29°21' W 094°44'0 0.0
2018-Jun-16 20:28N 29°21' W 094°44'0 0.0
2018-Jun-16 19:28N 29°21' W 094°44'0 0.0
2018-Jun-16 18:55N 29°21' W 094°44'0 0.0
2018-Jun-16 15:52N 29°21' W 094°44'0 0.0
2018-Jun-16 15:16N 29°21' W 094°44'0 0.0
2018-Jun-16 14:58N 29°21' W 094°44'0 0.0
2018-Jun-16 14:28N 29°21' W 094°44'0 0.0
2018-Jun-16 13:58N 29°21' W 094°44'0 0.0
2018-Jun-16 13:28N 29°21' W 094°44'0 0.0
2018-Jun-16 12:58N 29°21' W 094°44'0 0.0
2018-Jun-16 12:28N 29°21' W 094°44'0 0.0
2018-Jun-16 11:58N 29°21' W 094°44'0 0.0
2018-Jun-16 08:46N 29°21' W 094°44'0 0.2
2018-Jun-16 08:28N 29°21' W 094°44'0 0.1
2018-Jun-16 07:58N 29°21' W 094°44'0 0.1
2018-Jun-16 07:28N 29°21' W 094°44'0 0.1
2018-Jun-16 06:58N 29°21' W 094°44'0 0.1
2018-Jun-16 06:28N 29°21' W 094°44'0 0.0
2018-Jun-16 05:58N 29°21' W 094°44'0 0.0
2018-Jun-16 05:28N 29°21' W 094°44'0 0.0
2018-Jun-16 04:58N 29°21' W 094°44'0 0.0
2018-Jun-16 04:28N 29°21' W 094°44'0 0.0
2018-Jun-16 03:58N 29°21' W 094°44'0 0.0
2018-Jun-16 03:28N 29°21' W 094°44'0 0.0
2018-Jun-16 02:58N 29°21' W 094°44'0 0.0
2018-Jun-16 02:28N 29°21' W 094°44'0 0.0
2018-Jun-16 01:58N 29°21' W 094°44'0 0.0
2018-Jun-16 01:28N 29°21' W 094°44'0 0.0
2018-Jun-16 00:55N 29°21' W 094°44'0 0.1
2018-Jun-16 00:25N 29°21' W 094°44'0 0.1
2018-Jun-15 23:58N 29°21' W 094°44'0 0.1
2018-Jun-15 23:28N 29°21' W 094°44'0 0.1
2018-Jun-15 22:58N 29°21' W 094°44'0 0.0
2018-Jun-15 22:28N 29°21' W 094°44'0 0.2
2018-Jun-15 21:55N 29°21' W 094°44'0 0.3
2018-Jun-15 21:31N 29°21' W 094°44'2 3.2
2018-Jun-15 21:00N 29°21' W 094°46'511.1
2018-Jun-15 20:31N 29°25' W 094°50'611.0
2018-Jun-15 20:00N 29°30' W 094°52'510.6
2018-Jun-15 19:30N 29°35' W 094°56'510.3
2018-Jun-15 19:01N 29°39' W 094°58'4 8.4
2018-Jun-15 18:30N 29°42' W 095°01'0 0.0
2018-Jun-13 18:52N 29°42' W 095°01'3 7.1
2018-Jun-13 18:28N 29°40' W 094°59'4 9.2
2018-Jun-13 17:59N 29°36' W 094°57'5 9.9
2018-Jun-13 17:30N 29°32' W 094°54'610.5
2018-Jun-13 16:58N 29°27' W 094°51'510.4
2018-Jun-13 16:30N 29°23' W 094°49'5 9.7
2018-Jun-13 15:59N 29°21' W 094°43'13 2.4
2018-Jun-13 10:47N 29°10' W 094°36'0 0.0
2018-Jun-13 08:56N 29°10' W 094°35'0 0.0
2018-Jun-13 08:11N 29°10' W 094°35'0 0.0
2018-Jun-13 07:59N 29°10' W 094°35'0 0.0
2018-Jun-13 07:29N 29°10' W 094°35'0 0.0
2018-Jun-13 06:44N 29°10' W 094°35'0 0.0
2018-Jun-13 06:02N 29°10' W 094°35'0 0.0
2018-Jun-13 05:47N 29°10' W 094°35'0 0.0
2018-Jun-13 05:14N 29°10' W 094°35'0 0.0
2018-Jun-13 04:47N 29°10' W 094°35'0 0.0
2018-Jun-13 04:14N 29°10' W 094°35'0 0.0
2018-Jun-13 03:59N 29°10' W 094°35'0 0.0
2018-Jun-13 02:56N 29°10' W 094°35'0 0.0
2018-Jun-13 02:20N 29°10' W 094°35'0 0.0
2018-Jun-13 01:41N 29°10' W 094°36'0 0.1
2018-Jun-13 01:29N 29°10' W 094°36'0 0.0
2018-Jun-13 00:56N 29°10' W 094°36'0 0.0
2018-Jun-13 00:26N 29°10' W 094°36'0 0.0
2018-Jun-12 23:53N 29°10' W 094°36'0 0.0
2018-Jun-12 22:50N 29°10' W 094°36'0 0.0
2018-Jun-12 22:29N 29°10' W 094°36'0 0.0
2018-Jun-12 21:23N 29°10' W 094°35'0 0.0
2018-Jun-12 20:56N 29°10' W 094°35'0 0.0
2018-Jun-12 20:29N 29°10' W 094°35'0 0.0
2018-Jun-12 19:59N 29°10' W 094°35'0 0.0
2018-Jun-12 19:29N 29°10' W 094°35'0 0.0
2018-Jun-12 18:35N 29°10' W 094°35'0 0.1
2018-Jun-12 18:23N 29°10' W 094°35'0 0.0
2018-Jun-12 17:47N 29°10' W 094°35'0 0.0
2018-Jun-12 17:29N 29°10' W 094°35'0 0.0
2018-Jun-12 16:59N 29°10' W 094°35'0 0.0
2018-Jun-12 14:59N 29°10' W 094°35'0 0.0
2018-Jun-12 14:29N 29°10' W 094°35'0 0.0
2018-Jun-12 13:08N 29°10' W 094°35'0 0.1
2018-Jun-12 12:59N 29°10' W 094°35'0 0.0
2018-Jun-12 11:44N 29°10' W 094°35'1 0.5
2018-Jun-12 10:12N 29°09' W 094°36'  
Track history (hours):
 
Tides and Currents Weather Stations Pressure Air Temp Water Temp Dewpoint Dewpoint Depression Visibility Wind Speed Wind Dir Waves Ship Positions

Bergina

Last reported at 2018-Jun-18 02:41 UTC. Time now 2018-Jun-18 07:56 UTC.
Position N 29°12' W 094°37'.

Length 240 m; draft 12.6 m.

Type: Tanker. MMSI: 308391000.

Date/timePositionNaut miles runAvg speedWind from/ knotsBaromVisibWave heightAir tempDewpointWater temp
2018-Jun-18 02:41N 29°12' W 094°37'1 4.2
2018-Jun-18 02:29N 29°13' W 094°37'4 7.5
2018-Jun-18 02:00N 29°16' W 094°36'5 9.4
2018-Jun-18 01:30N 29°19' W 094°40'4 6.9
2018-Jun-18 00:55N 29°21' W 094°44'0 0.1
2018-Jun-18 00:19N 29°21' W 094°44'0 0.0
2018-Jun-17 23:52N 29°21' W 094°44'0 0.1
2018-Jun-17 23:19N 29°21' W 094°44'0 0.0
2018-Jun-17 22:55N 29°21' W 094°44'0 0.1
2018-Jun-17 22:28N 29°21' W 094°44'0 0.0
2018-Jun-17 21:40N 29°21' W 094°44'0 0.0
2018-Jun-17 21:07N 29°21' W 094°44'0 0.0
2018-Jun-17 20:40N 29°21' W 094°44'0 0.0
2018-Jun-17 20:16N 29°21' W 094°44'0 0.0
2018-Jun-17 19:16N 29°21' W 094°44'0 0.0
2018-Jun-17 18:52N 29°21' W 094°44'0 0.0
2018-Jun-17 17:25N 29°21' W 094°44'0 0.0
2018-Jun-17 16:58N 29°21' W 094°44'0 0.0
2018-Jun-17 16:25N 29°21' W 094°44'0 0.0
2018-Jun-17 15:58N 29°21' W 094°44'0 0.0
2018-Jun-17 15:28N 29°21' W 094°44'0 0.0
2018-Jun-17 14:52N 29°21' W 094°44'0 0.0
2018-Jun-17 14:28N 29°21' W 094°44'0 0.0
2018-Jun-17 03:22N 29°21' W 094°44'0 0.0
2018-Jun-17 02:58N 29°21' W 094°44'0 0.1
2018-Jun-17 02:28N 29°21' W 094°44'0 0.2
2018-Jun-17 01:58N 29°21' W 094°44'0 0.1
2018-Jun-17 01:22N 29°21' W 094°44'0 0.1
2018-Jun-17 00:55N 29°21' W 094°44'0 0.0
2018-Jun-17 00:25N 29°21' W 094°44'0 0.0
2018-Jun-16 23:37N 29°21' W 094°44'0 0.1
2018-Jun-16 23:25N 29°21' W 094°44'0 0.0
2018-Jun-16 22:40N 29°21' W 094°44'0 0.0
2018-Jun-16 22:28N 29°21' W 094°44'0 0.0
2018-Jun-16 21:37N 29°21' W 094°44'0 0.0
2018-Jun-16 21:22N 29°21' W 094°44'0 0.0
2018-Jun-16 20:52N 29°21' W 094°44'0 0.0
2018-Jun-16 20:28N 29°21' W 094°44'0 0.0
2018-Jun-16 19:28N 29°21' W 094°44'0 0.0
2018-Jun-16 18:55N 29°21' W 094°44'0 0.0
2018-Jun-16 15:52N 29°21' W 094°44'0 0.0
2018-Jun-16 15:16N 29°21' W 094°44'0 0.0
2018-Jun-16 14:58N 29°21' W 094°44'0 0.0
2018-Jun-16 14:28N 29°21' W 094°44'0 0.0
2018-Jun-16 13:58N 29°21' W 094°44'0 0.0
2018-Jun-16 13:28N 29°21' W 094°44'0 0.0
2018-Jun-16 12:58N 29°21' W 094°44'0 0.0
2018-Jun-16 12:28N 29°21' W 094°44'0 0.0
2018-Jun-16 11:58N 29°21' W 094°44'0 0.0
2018-Jun-16 08:46N 29°21' W 094°44'0 0.2
2018-Jun-16 08:28N 29°21' W 094°44'0 0.1
2018-Jun-16 07:58N 29°21' W 094°44'0 0.1
2018-Jun-16 07:28N 29°21' W 094°44'0 0.1
2018-Jun-16 06:58N 29°21' W 094°44'0 0.1
2018-Jun-16 06:28N 29°21' W 094°44'0 0.0
2018-Jun-16 05:58N 29°21' W 094°44'0 0.0
2018-Jun-16 05:28N 29°21' W 094°44'0 0.0
2018-Jun-16 04:58N 29°21' W 094°44'0 0.0
2018-Jun-16 04:28N 29°21' W 094°44'0 0.0
2018-Jun-16 03:58N 29°21' W 094°44'0 0.0
2018-Jun-16 03:28N 29°21' W 094°44'0 0.0
2018-Jun-16 02:58N 29°21' W 094°44'0 0.0
2018-Jun-16 02:28N 29°21' W 094°44'0 0.0
2018-Jun-16 01:58N 29°21' W 094°44'0 0.0
2018-Jun-16 01:28N 29°21' W 094°44'0 0.0
2018-Jun-16 00:55N 29°21' W 094°44'0 0.1
2018-Jun-16 00:25N 29°21' W 094°44'0 0.1
2018-Jun-15 23:58N 29°21' W 094°44'0 0.1
2018-Jun-15 23:28N 29°21' W 094°44'0 0.1
2018-Jun-15 22:58N 29°21' W 094°44'0 0.0
2018-Jun-15 22:28N 29°21' W 094°44'0 0.2
2018-Jun-15 21:55N 29°21' W 094°44'0 0.3
2018-Jun-15 21:31N 29°21' W 094°44'2 3.2
2018-Jun-15 21:00N 29°21' W 094°46'511.1
2018-Jun-15 20:31N 29°25' W 094°50'611.0
2018-Jun-15 20:00N 29°30' W 094°52'510.6
2018-Jun-15 19:30N 29°35' W 094°56'510.3
2018-Jun-15 19:01N 29°39' W 094°58'4 8.4
2018-Jun-15 18:30N 29°42' W 095°01'0 0.0
2018-Jun-13 18:52N 29°42' W 095°01'3 7.1
2018-Jun-13 18:28N 29°40' W 094°59'4 9.2
2018-Jun-13 17:59N 29°36' W 094°57'5 9.9
2018-Jun-13 17:30N 29°32' W 094°54'610.5
2018-Jun-13 16:58N 29°27' W 094°51'510.4
2018-Jun-13 16:30N 29°23' W 094°49'5 9.7
2018-Jun-13 15:59N 29°21' W 094°43'13 2.4
2018-Jun-13 10:47N 29°10' W 094°36'0 0.0
2018-Jun-13 08:56N 29°10' W 094°35'0 0.0
2018-Jun-13 08:11N 29°10' W 094°35'0 0.0
2018-Jun-13 07:59N 29°10' W 094°35'0 0.0
2018-Jun-13 07:29N 29°10' W 094°35'0 0.0
2018-Jun-13 06:44N 29°10' W 094°35'0 0.0
2018-Jun-13 06:02N 29°10' W 094°35'0 0.0
2018-Jun-13 05:47N 29°10' W 094°35'0 0.0
2018-Jun-13 05:14N 29°10' W 094°35'0 0.0
2018-Jun-13 04:47N 29°10' W 094°35'0 0.0
2018-Jun-13 04:14N 29°10' W 094°35'0 0.0
2018-Jun-13 03:59N 29°10' W 094°35'0 0.0
2018-Jun-13 02:56N 29°10' W 094°35'0 0.0
2018-Jun-13 02:20N 29°10' W 094°35'0 0.0
2018-Jun-13 01:41N 29°10' W 094°36'0 0.1
2018-Jun-13 01:29N 29°10' W 094°36'0 0.0
2018-Jun-13 00:56N 29°10' W 094°36'0 0.0
2018-Jun-13 00:26N 29°10' W 094°36'0 0.0
2018-Jun-12 23:53N 29°10' W 094°36'0 0.0
2018-Jun-12 22:50N 29°10' W 094°36'0 0.0
2018-Jun-12 22:29N 29°10' W 094°36'0 0.0
2018-Jun-12 21:23N 29°10' W 094°35'0 0.0
2018-Jun-12 20:56N 29°10' W 094°35'0 0.0
2018-Jun-12 20:29N 29°10' W 094°35'0 0.0
2018-Jun-12 19:59N 29°10' W 094°35'0 0.0
2018-Jun-12 19:29N 29°10' W 094°35'0 0.0
2018-Jun-12 18:35N 29°10' W 094°35'0 0.1
2018-Jun-12 18:23N 29°10' W 094°35'0 0.0
2018-Jun-12 17:47N 29°10' W 094°35'0 0.0
2018-Jun-12 17:29N 29°10' W 094°35'0 0.0
2018-Jun-12 16:59N 29°10' W 094°35'0 0.0
2018-Jun-12 14:59N 29°10' W 094°35'0 0.0
2018-Jun-12 14:29N 29°10' W 094°35'0 0.0
2018-Jun-12 13:08N 29°10' W 094°35'0 0.1
2018-Jun-12 12:59N 29°10' W 094°35'0 0.0
2018-Jun-12 11:44N 29°10' W 094°35'1 0.5
2018-Jun-12 10:12N 29°09' W 094°36'  

Dump ship's entire track history